createdAt,value
2023-05-14T00:00:11.536Z,98278.25
2023-05-14T00:02:40.720Z,98281.09
2023-05-14T00:05:11.453Z,98277.66
2023-05-14T00:07:39.933Z,98288.69
2023-05-14T00:10:09.639Z,98281.22
2023-05-14T00:12:38.140Z,98273.56
2023-05-14T00:15:10.237Z,98276.97
2023-05-14T00:17:39.030Z,98277.34
2023-05-14T00:20:08.930Z,98278.53
2023-05-14T00:22:38.224Z,98271.25
2023-05-14T00:25:09.804Z,98269.63
2023-05-14T00:27:38.717Z,98270.00
2023-05-14T00:30:10.236Z,98267.97
2023-05-14T00:32:38.675Z,98276.00
2023-05-14T00:35:09.169Z,98270.13
2023-05-14T00:37:39.101Z,98263.63
2023-05-14T00:40:11.710Z,98267.44
2023-05-14T00:42:41.208Z,98262.38
2023-05-14T00:45:12.358Z,98267.38
2023-05-14T00:47:41.422Z,98259.88
2023-05-14T00:50:13.773Z,98262.50
2023-05-14T00:52:43.411Z,98261.28
2023-05-14T00:55:17.355Z,98265.25
2023-05-14T00:57:46.172Z,98265.44
2023-05-14T01:00:19.354Z,98263.19
2023-05-14T01:02:48.523Z,98258.69
2023-05-14T01:05:17.019Z,98260.69
2023-05-14T01:07:59.856Z,98258.06
2023-05-14T01:10:43.404Z,98256.25
2023-05-14T01:13:21.112Z,98240.94
2023-05-14T01:15:51.824Z,98241.91
2023-05-14T01:18:20.900Z,98247.16
2023-05-14T01:20:52.307Z,98241.31
2023-05-14T01:23:22.274Z,98239.69
2023-05-14T01:25:50.851Z,98234.81
2023-05-14T01:28:26.745Z,98233.19
2023-05-14T01:31:02.687Z,98225.53
2023-05-14T01:33:34.737Z,98226.53
2023-05-14T01:36:04.628Z,98232.94
2023-05-14T01:38:36.387Z,98237.13
2023-05-14T01:41:06.619Z,98238.28
2023-05-14T01:43:36.125Z,98243.28
2023-05-14T01:46:05.066Z,98240.22
2023-05-14T01:48:33.542Z,98244.56
2023-05-14T01:51:03.234Z,98237.47
2023-05-14T01:53:35.492Z,98242.88
2023-05-14T01:56:04.091Z,98242.41
2023-05-14T01:58:32.554Z,98228.53
2023-05-14T02:01:02.651Z,98234.94
2023-05-14T02:03:32.562Z,98230.91
2023-05-14T02:06:01.492Z,98235.13
2023-05-14T02:08:29.894Z,98232.34
2023-05-14T02:11:01.462Z,98227.28
2023-05-14T02:13:30.784Z,98225.03
2023-05-14T02:15:59.275Z,98226.00
2023-05-14T02:18:27.706Z,98228.63
2023-05-14T02:20:58.212Z,98223.75
2023-05-14T02:23:37.723Z,98215.69
2023-05-14T02:26:09.777Z,98217.28
2023-05-14T02:28:38.363Z,98216.66
2023-05-14T02:31:07.049Z,98217.03
2023-05-14T02:33:37.157Z,98208.75
2023-05-14T02:36:05.870Z,98208.91
2023-05-14T02:38:34.855Z,98208.28
2023-05-14T02:41:03.625Z,98207.03
2023-05-14T02:43:33.789Z,98199.38
2023-05-14T02:46:02.346Z,98201.34
2023-05-14T02:48:31.344Z,98204.16
2023-05-14T02:50:59.766Z,98202.53
2023-05-14T02:53:28.780Z,98197.69
2023-05-14T02:55:57.883Z,98198.66
2023-05-14T02:58:28.412Z,98194.03
2023-05-14T03:00:59.280Z,98197.84
2023-05-14T03:03:30.007Z,98200.22
2023-05-14T03:06:00.271Z,98195.78
2023-05-14T03:08:29.298Z,98186.31
2023-05-14T03:10:57.738Z,98191.56
2023-05-14T03:13:27.417Z,98198.03
2023-05-14T03:15:57.393Z,98200.22
2023-05-14T03:18:28.377Z,98203.81
2023-05-14T03:20:56.865Z,98202.38
2023-05-14T03:23:26.383Z,98195.69
2023-05-14T03:25:54.916Z,98196.84
2023-05-14T03:28:23.795Z,98198.38
2023-05-14T03:30:52.971Z,98197.91
2023-05-14T03:33:23.660Z,98191.88
2023-05-14T03:35:52.696Z,98188.44
2023-05-14T03:38:21.132Z,98193.88
2023-05-14T03:40:50.285Z,98188.81
2023-05-14T03:43:18.761Z,98190.97
2023-05-14T03:45:48.377Z,98185.75
2023-05-14T03:48:16.854Z,98185.75
2023-05-14T03:50:46.868Z,98183.84
2023-05-14T03:53:16.102Z,98183.50
2023-05-14T03:55:44.570Z,98183.50
2023-05-14T03:58:14.757Z,98180.06
2023-05-14T04:00:44.356Z,98190.06
2023-05-14T04:03:13.322Z,98194.66
2023-05-14T04:05:41.868Z,98183.94
2023-05-14T04:08:12.270Z,98195.38
2023-05-14T04:10:40.862Z,98193.56
2023-05-14T04:13:09.356Z,98187.56
2023-05-14T04:15:39.467Z,98195.19
2023-05-14T04:18:08.144Z,98196.38
2023-05-14T04:20:37.525Z,98196.72
2023-05-14T04:23:06.135Z,98194.28
2023-05-14T04:25:36.003Z,98190.22
2023-05-14T04:28:04.663Z,98200.69
2023-05-14T04:30:33.252Z,98195.81
2023-05-14T04:33:02.359Z,98199.56
2023-05-14T04:35:31.472Z,98200.38
2023-05-14T04:37:59.928Z,98199.75
2023-05-14T04:40:28.525Z,98195.72
2023-05-14T04:42:58.544Z,98199.13
2023-05-14T04:45:27.739Z,98196.84
2023-05-14T04:47:56.424Z,98201.25
2023-05-14T04:50:25.921Z,98203.72
2023-05-14T04:52:56.573Z,98199.13
2023-05-14T04:55:26.213Z,98204.97
2023-05-14T04:57:55.519Z,98215.06
2023-05-14T05:00:26.118Z,98209.50
2023-05-14T05:02:54.886Z,98208.50
2023-05-14T05:05:23.853Z,98204.72
2023-05-14T05:07:52.380Z,98205.38
2023-05-14T05:10:20.853Z,98205.19
2023-05-14T05:12:49.377Z,98198.78
2023-05-14T05:15:17.950Z,98195.19
2023-05-14T05:17:48.250Z,98195.03
2023-05-14T05:20:19.715Z,98196.28
2023-05-14T05:22:48.214Z,98196.91
2023-05-14T05:25:17.272Z,98190.53
2023-05-14T05:27:46.034Z,98188.56
2023-05-14T05:30:14.806Z,98192.16
2023-05-14T05:32:43.460Z,98189.34
2023-05-14T05:35:13.445Z,98187.38
2023-05-14T05:37:45.275Z,98186.19
2023-05-14T05:40:17.775Z,98193.69
2023-05-14T05:42:47.026Z,98188.75
2023-05-14T05:45:15.728Z,98191.81
2023-05-14T05:47:45.095Z,98187.84
2023-05-14T05:50:20.205Z,98189.09
2023-05-14T05:52:49.330Z,98184.16
2023-05-14T05:55:20.894Z,98189.03
2023-05-14T05:57:49.368Z,98193.72
2023-05-14T06:00:21.337Z,98187.97
2023-05-14T06:02:53.730Z,98184.97
2023-05-14T06:05:25.042Z,98183.78
2023-05-14T06:07:54.907Z,98188.47
2023-05-14T06:10:26.504Z,98190.53
2023-05-14T06:12:55.396Z,98185.38
2023-05-14T06:15:24.996Z,98186.47
2023-05-14T06:17:53.888Z,98190.13
2023-05-14T06:20:25.075Z,98193.84
2023-05-14T06:22:56.632Z,98194.91
2023-05-14T06:25:28.976Z,98188.91
2023-05-14T06:27:57.547Z,98195.03
2023-05-14T06:30:26.359Z,98194.28
2023-05-14T06:32:55.590Z,98191.94
2023-05-14T06:35:25.897Z,98194.63
2023-05-14T06:37:54.337Z,98193.06
2023-05-14T06:40:23.210Z,98196.53
2023-05-14T06:42:51.923Z,98197.41
2023-05-14T06:45:21.534Z,98203.53
2023-05-14T06:47:51.980Z,98197.56
2023-05-14T06:50:21.362Z,98198.41
2023-05-14T06:52:53.893Z,98188.19
2023-05-14T06:55:22.817Z,98194.28
2023-05-14T06:57:52.443Z,98184.06
2023-05-14T07:00:22.878Z,98190.19
2023-05-14T07:02:51.595Z,98191.41
2023-05-14T07:05:22.685Z,98188.63
2023-05-14T07:07:52.755Z,98191.50
2023-05-14T07:10:23.446Z,98181.88
2023-05-14T07:12:52.400Z,98183.72
2023-05-14T07:15:21.244Z,98180.97
2023-05-14T07:17:49.799Z,98183.22
2023-05-14T07:20:24.315Z,98187.50
2023-05-14T07:22:55.102Z,98179.44
2023-05-14T07:25:24.093Z,98182.31
2023-05-14T07:27:52.809Z,98181.13
2023-05-14T07:30:21.786Z,98175.72
2023-05-14T07:32:50.994Z,98169.28
2023-05-14T07:35:20.362Z,98168.13
2023-05-14T07:37:50.095Z,98165.94
2023-05-14T07:40:20.763Z,98161.50
2023-05-14T07:42:49.216Z,98157.66
2023-05-14T07:45:17.886Z,98160.16
2023-05-14T07:47:46.530Z,98158.34
2023-05-14T07:50:15.451Z,98154.50
2023-05-14T07:52:43.882Z,98154.31
2023-05-14T07:55:13.744Z,98157.75
2023-05-14T07:57:43.592Z,98149.88
2023-05-14T08:00:13.752Z,98152.47
2023-05-14T08:02:42.690Z,98146.41
2023-05-14T08:05:11.518Z,98142.56
2023-05-14T08:07:39.997Z,98141.13
2023-05-14T08:10:10.303Z,98140.53
2023-05-14T08:12:39.651Z,98137.88
2023-05-14T08:15:13.009Z,98141.72
2023-05-14T08:17:41.547Z,98138.47
2023-05-14T08:20:12.034Z,98139.69
2023-05-14T08:22:41.175Z,98130.97
2023-05-14T08:25:10.663Z,98135.19
2023-05-14T08:27:39.085Z,98140.22
2023-05-14T08:30:10.339Z,98143.03
2023-05-14T08:32:39.570Z,98137.38
2023-05-14T08:35:09.291Z,98141.81
2023-05-14T08:37:38.114Z,98142.59
2023-05-14T08:40:08.816Z,98136.91
2023-05-14T08:42:40.572Z,98141.75
2023-05-14T08:45:18.987Z,98137.09
2023-05-14T08:47:51.056Z,98141.13
2023-05-14T08:50:23.072Z,98130.00
2023-05-14T08:52:54.188Z,98128.56
2023-05-14T08:55:26.145Z,98129.13
2023-05-14T08:57:55.196Z,98134.75
2023-05-14T09:00:27.064Z,98139.56
2023-05-14T09:02:57.254Z,98136.09
2023-05-14T09:05:26.509Z,98132.59
2023-05-14T09:07:55.046Z,98134.63
2023-05-14T09:10:23.852Z,98124.22
2023-05-14T09:12:52.576Z,98126.00
2023-05-14T09:15:21.249Z,98119.47
2023-05-14T09:17:51.224Z,98110.69
2023-05-14T09:20:20.250Z,98101.72
2023-05-14T09:22:49.381Z,98109.56
2023-05-14T09:25:18.240Z,98105.66
2023-05-14T09:27:51.656Z,98093.84
2023-05-14T09:30:20.688Z,98101.69
2023-05-14T09:32:50.705Z,98089.25
2023-05-14T09:35:21.572Z,98090.41
2023-05-14T09:37:53.450Z,98095.38
2023-05-14T09:40:24.983Z,98094.16
2023-05-14T09:42:53.749Z,98090.28
2023-05-14T09:45:22.813Z,98082.72
2023-05-14T09:47:53.432Z,98085.13
2023-05-14T09:50:22.685Z,98090.78
2023-05-14T09:52:51.356Z,98086.75
2023-05-14T09:55:21.965Z,98085.72
2023-05-14T09:57:50.407Z,98079.34
2023-05-14T10:00:21.178Z,98086.66
2023-05-14T10:02:53.309Z,98075.47
2023-05-14T10:05:23.682Z,98078.47
2023-05-14T10:07:54.431Z,98071.50
2023-05-14T10:10:28.095Z,98066.38
2023-05-14T10:13:04.241Z,98059.97
2023-05-14T10:15:41.698Z,98053.00
2023-05-14T10:18:14.520Z,98046.81
2023-05-14T10:20:44.168Z,98045.72
2023-05-14T10:23:12.871Z,98052.72
2023-05-14T10:25:42.624Z,98054.97
2023-05-14T10:28:11.772Z,98053.53
2023-05-14T10:30:47.448Z,98053.31
2023-05-14T10:33:18.824Z,98054.72
2023-05-14T10:35:59.292Z,98041.31
2023-05-14T10:38:29.998Z,98041.53
2023-05-14T10:41:04.215Z,98040.41
2023-05-14T10:43:38.649Z,98040.31
2023-05-14T10:46:10.006Z,98039.63
2023-05-14T10:48:43.515Z,98039.75
2023-05-14T10:51:14.043Z,98034.13
2023-05-14T10:53:44.951Z,98033.22
2023-05-14T10:56:15.405Z,98024.84
2023-05-14T10:58:46.697Z,98019.91
2023-05-14T11:01:15.836Z,98027.16
2023-05-14T11:03:47.846Z,98038.44
2023-05-14T11:06:17.541Z,98028.66
2023-05-14T11:08:47.014Z,98034.97
2023-05-14T11:11:15.614Z,98031.41
2023-05-14T11:13:45.886Z,98019.34
2023-05-14T11:16:23.295Z,98022.34
2023-05-14T11:19:04.026Z,98018.66
2023-05-14T11:21:33.469Z,98026.59
2023-05-14T11:24:02.344Z,98017.63
2023-05-14T11:26:34.009Z,98011.75
2023-05-14T11:29:02.604Z,98019.34
2023-05-14T11:31:31.685Z,98006.81
2023-05-14T11:34:03.914Z,98010.63
2023-05-14T11:36:32.938Z,98014.16
2023-05-14T11:39:01.452Z,98007.84
2023-05-14T11:41:31.091Z,97998.88
2023-05-14T11:44:01.085Z,98002.09
2023-05-14T11:46:31.519Z,97990.25
2023-05-14T11:49:01.426Z,97983.72
2023-05-14T11:51:30.329Z,97979.94
2023-05-14T11:53:59.337Z,97980.72
2023-05-14T11:56:27.825Z,97982.66
2023-05-14T11:58:58.963Z,97987.84
2023-05-14T12:01:28.754Z,97972.63
2023-05-14T12:03:57.416Z,97973.31
2023-05-14T12:06:33.209Z,97971.13
2023-05-14T12:09:01.935Z,97964.00
2023-05-14T12:11:32.975Z,97968.47
2023-05-14T12:14:01.546Z,97977.44
2023-05-14T12:16:33.997Z,97970.56
2023-05-14T12:19:05.106Z,97975.88
2023-05-14T12:21:36.689Z,97961.09
2023-05-14T12:24:05.623Z,97960.88
2023-05-14T12:26:35.219Z,97962.91
2023-05-14T12:29:07.480Z,97956.66
2023-05-14T12:31:38.223Z,97956.56
2023-05-14T12:34:07.859Z,97952.28
2023-05-14T12:36:38.317Z,97959.44
2023-05-14T12:39:07.103Z,97947.00
2023-05-14T12:41:35.640Z,97951.25
2023-05-14T12:44:06.277Z,97938.91
2023-05-14T12:46:35.895Z,97941.66
2023-05-14T12:49:04.454Z,97945.19
2023-05-14T12:51:32.835Z,97926.44
2023-05-14T12:54:03.326Z,97938.28
2023-05-14T12:56:32.102Z,97943.34
2023-05-14T12:59:00.639Z,97935.16
2023-05-14T13:01:29.758Z,97937.66
2023-05-14T13:03:58.909Z,97923.69
2023-05-14T13:06:28.097Z,97926.19
2023-05-14T13:08:56.803Z,97926.97
2023-05-14T13:11:27.289Z,97921.25
2023-05-14T13:13:56.400Z,97906.09
2023-05-14T13:16:24.890Z,97911.13
2023-05-14T13:18:53.332Z,97898.81
2023-05-14T13:21:22.136Z,97905.19
2023-05-14T13:23:50.884Z,97917.38
2023-05-14T13:26:19.772Z,97915.22
2023-05-14T13:28:49.603Z,97924.56
2023-05-14T13:31:18.073Z,97920.09
2023-05-14T13:33:46.710Z,97913.94
2023-05-14T13:36:16.991Z,97922.91
2023-05-14T13:38:47.037Z,97925.03
2023-05-14T13:41:15.533Z,97910.81
2023-05-14T13:43:44.167Z,97905.75
2023-05-14T13:46:14.599Z,97902.88
2023-05-14T13:48:42.963Z,97902.75
2023-05-14T13:51:11.411Z,97887.47
2023-05-14T13:53:39.848Z,97883.09
2023-05-14T13:56:09.016Z,97876.66
2023-05-14T13:58:37.542Z,97870.41
2023-05-14T14:01:06.390Z,97873.78
2023-05-14T14:03:36.315Z,97870.41
2023-05-14T14:06:05.674Z,97862.38
2023-05-14T14:08:34.095Z,97874.09
2023-05-14T14:11:02.601Z,97870.16
2023-05-14T14:13:31.134Z,97868.28
2023-05-14T14:15:59.569Z,97868.97
2023-05-14T14:18:28.478Z,97868.06
2023-05-14T14:20:58.516Z,97867.53
2023-05-14T14:23:29.284Z,97859.78
2023-05-14T14:25:57.860Z,97862.63
2023-05-14T14:28:26.902Z,97867.97
2023-05-14T14:30:55.338Z,97873.38
2023-05-14T14:33:23.843Z,97862.56
2023-05-14T14:35:52.991Z,97858.63
2023-05-14T14:38:22.826Z,97856.50
2023-05-14T14:40:51.455Z,97885.47
2023-05-14T14:43:19.895Z,97895.66
2023-05-14T14:45:49.173Z,97895.91
2023-05-14T14:48:27.490Z,97913.22
2023-05-14T14:50:56.696Z,97904.56
2023-05-14T14:53:26.569Z,97891.72
2023-05-14T14:55:55.158Z,97903.38
2023-05-14T14:58:24.568Z,97898.50
2023-05-14T15:00:55.585Z,97883.75
2023-05-14T15:03:25.529Z,97878.69
2023-05-14T15:05:55.000Z,97879.25
2023-05-14T15:08:27.707Z,97868.25
2023-05-14T15:10:56.621Z,97864.91
2023-05-14T15:13:25.803Z,97863.19
2023-05-14T15:15:54.333Z,97858.59
2023-05-14T15:18:22.974Z,97852.66
2023-05-14T15:20:52.179Z,97861.56
2023-05-14T15:23:20.874Z,97850.00
2023-05-14T15:25:50.673Z,97842.16
2023-05-14T15:28:19.888Z,97840.09
2023-05-14T15:30:49.700Z,97836.63
2023-05-14T15:33:19.334Z,97830.03
2023-05-14T15:35:48.170Z,97843.34
2023-05-14T15:38:16.580Z,97841.28
2023-05-14T15:40:45.040Z,97845.84
2023-05-14T15:43:14.978Z,97846.84
2023-05-14T15:45:45.743Z,97845.16
2023-05-14T15:48:14.662Z,97838.75
2023-05-14T15:50:43.558Z,97833.97
2023-05-14T15:53:12.855Z,97837.19
2023-05-14T15:55:41.834Z,97827.84
2023-05-14T15:58:10.289Z,97827.84
2023-05-14T16:00:40.080Z,97835.53
2023-05-14T16:03:08.656Z,97833.13
2023-05-14T16:05:37.411Z,97831.03
2023-05-14T16:08:06.319Z,97828.88
2023-05-14T16:10:34.825Z,97827.31
2023-05-14T16:13:03.256Z,97822.31
2023-05-14T16:15:31.775Z,97831.09
2023-05-14T16:18:01.769Z,97829.69
2023-05-14T16:20:30.429Z,97829.91
2023-05-14T16:22:58.850Z,97831.09
2023-05-14T16:25:27.571Z,97841.69
2023-05-14T16:27:56.214Z,97841.09
2023-05-14T16:30:24.779Z,97844.19
2023-05-14T16:32:54.336Z,97838.78
2023-05-14T16:35:24.233Z,97842.66
2023-05-14T16:37:53.269Z,97836.09
2023-05-14T16:40:23.431Z,97838.16
2023-05-14T16:42:52.246Z,97839.72
2023-05-14T16:45:20.823Z,97835.88
2023-05-14T16:47:49.303Z,97835.56
2023-05-14T16:50:18.083Z,97839.56
2023-05-14T16:52:47.917Z,97841.69
2023-05-14T16:55:16.714Z,97848.28
2023-05-14T16:57:45.307Z,97848.44
2023-05-14T17:00:15.396Z,97854.31
2023-05-14T17:02:43.891Z,97862.16
2023-05-14T17:05:12.366Z,97863.63
2023-05-14T17:07:41.406Z,97861.22
2023-05-14T17:10:12.196Z,97853.69
2023-05-14T17:12:40.648Z,97861.28
2023-05-14T17:15:11.236Z,97851.72
2023-05-14T17:17:39.668Z,97856.28
2023-05-14T17:20:09.502Z,97857.56
2023-05-14T17:22:38.703Z,97855.47
2023-05-14T17:25:09.134Z,97849.69
2023-05-14T17:27:38.958Z,97857.56
2023-05-14T17:30:10.202Z,97850.69
2023-05-14T17:32:38.847Z,97860.97
2023-05-14T17:35:09.643Z,97861.72
2023-05-14T17:37:38.292Z,97870.94
2023-05-14T17:40:08.228Z,97886.25
2023-05-14T17:42:38.091Z,97890.19
2023-05-14T17:45:08.273Z,97886.19
2023-05-14T17:47:37.288Z,97894.38
2023-05-14T17:50:07.237Z,97896.97
2023-05-14T17:52:35.683Z,97906.09
2023-05-14T17:55:04.274Z,97904.16
2023-05-14T17:57:32.705Z,97899.31
2023-05-14T18:00:02.515Z,97899.81
2023-05-14T18:02:31.746Z,97903.75
2023-05-14T18:05:00.436Z,97903.97
2023-05-14T18:07:29.319Z,97909.50
2023-05-14T18:09:58.126Z,97905.28
2023-05-14T18:12:27.461Z,97906.53
2023-05-14T18:14:56.601Z,97904.28
2023-05-14T18:17:26.532Z,97911.19
2023-05-14T18:19:55.078Z,97904.28
2023-05-14T18:22:24.390Z,97904.28
2023-05-14T18:24:52.870Z,97906.69
2023-05-14T18:27:21.873Z,97901.66
2023-05-14T18:29:51.745Z,97905.31
2023-05-14T18:32:21.137Z,97905.00
2023-05-14T18:34:51.036Z,97906.84
2023-05-14T18:37:19.555Z,97903.66
2023-05-14T18:39:47.995Z,97911.50
2023-05-14T18:42:16.701Z,97907.16
2023-05-14T18:44:45.152Z,97911.41
2023-05-14T18:47:14.370Z,97909.16
2023-05-14T18:49:42.802Z,97906.41
2023-05-14T18:52:12.633Z,97904.47
2023-05-14T18:54:41.034Z,97899.41
2023-05-14T18:57:09.755Z,97903.56
2023-05-14T18:59:38.168Z,97909.34
2023-05-14T19:02:07.017Z,97906.13
2023-05-14T19:04:47.898Z,97894.09
2023-05-14T19:07:21.738Z,97899.53
2023-05-14T19:09:50.418Z,97894.59
2023-05-14T19:12:19.457Z,97892.66
2023-05-14T19:14:47.849Z,97895.72
2023-05-14T19:17:18.370Z,97896.69
2023-05-14T19:19:47.707Z,97900.59
2023-05-14T19:22:16.198Z,97901.63
2023-05-14T19:24:46.371Z,97902.56
2023-05-14T19:27:16.305Z,97904.06
2023-05-14T19:29:46.664Z,97898.09
2023-05-14T19:32:15.146Z,97904.88
2023-05-14T19:34:43.590Z,97918.00
2023-05-14T19:37:12.797Z,97915.84
2023-05-14T19:39:41.208Z,97912.84
2023-05-14T19:42:11.032Z,97919.38
2023-05-14T19:44:39.555Z,97915.63
2023-05-14T19:47:09.145Z,97916.06
2023-05-14T19:49:37.779Z,97913.88
2023-05-14T19:52:07.326Z,97913.31
2023-05-14T19:54:35.754Z,97915.38
2023-05-14T19:57:04.230Z,97916.88
2023-05-14T19:59:34.732Z,97920.56
2023-05-14T20:02:04.750Z,97912.06
2023-05-14T20:04:33.718Z,97919.41
2023-05-14T20:07:02.238Z,97914.59
2023-05-14T20:09:31.132Z,97910.56
2023-05-14T20:11:59.610Z,97917.34
2023-05-14T20:14:28.101Z,97911.13
2023-05-14T20:17:00.052Z,97925.38
2023-05-14T20:19:28.654Z,97922.94
2023-05-14T20:21:59.794Z,97915.94
2023-05-14T20:24:29.602Z,97925.13
2023-05-14T20:26:58.088Z,97926.00
2023-05-14T20:29:26.483Z,97921.19
2023-05-14T20:31:54.979Z,97922.09
2023-05-14T20:34:24.916Z,97923.34
2023-05-14T20:36:53.356Z,97926.22
2023-05-14T20:39:22.825Z,97925.41
2023-05-14T20:41:51.628Z,97919.31
2023-05-14T20:44:20.752Z,97917.94
2023-05-14T20:46:49.285Z,97915.41
2023-05-14T20:49:17.827Z,97914.84
2023-05-14T20:51:47.671Z,97910.03
2023-05-14T20:54:16.118Z,97899.88
2023-05-14T20:56:44.685Z,97909.88
2023-05-14T20:59:13.696Z,97907.69
2023-05-14T21:01:43.691Z,97908.72
2023-05-14T21:04:12.381Z,97901.94
2023-05-14T21:06:40.880Z,97903.63
2023-05-14T21:09:10.921Z,97903.63
2023-05-14T21:11:39.384Z,97903.75
2023-05-14T21:14:07.801Z,97899.13
2023-05-14T21:16:36.796Z,97908.75
2023-05-14T21:19:05.305Z,97904.13
2023-05-14T21:21:33.813Z,97904.78
2023-05-14T21:24:02.293Z,97898.38
2023-05-14T21:26:34.066Z,97898.81
2023-05-14T21:29:03.689Z,97895.59
2023-05-14T21:31:32.179Z,97901.88
2023-05-14T21:34:00.679Z,97893.06
2023-05-14T21:36:29.074Z,97891.22
2023-05-14T21:38:58.108Z,97893.06
2023-05-14T21:41:26.625Z,97900.97
2023-05-14T21:43:56.992Z,97905.22
2023-05-14T21:46:25.798Z,97896.72
2023-05-14T21:48:54.366Z,97894.53
2023-05-14T21:51:22.980Z,97902.44
2023-05-14T21:53:51.400Z,97902.88
2023-05-14T21:56:20.067Z,97894.41
2023-05-14T21:58:48.511Z,97894.22
2023-05-14T22:01:18.447Z,97890.66
2023-05-14T22:03:46.889Z,97900.38
2023-05-14T22:06:15.466Z,97898.31
2023-05-14T22:08:44.939Z,97899.31
2023-05-14T22:11:13.479Z,97893.50
2023-05-14T22:13:41.872Z,97897.94
2023-05-14T22:16:13.248Z,97887.66
2023-05-14T22:18:44.728Z,97886.22
2023-05-14T22:21:13.186Z,97881.78
2023-05-14T22:23:41.632Z,97882.00
2023-05-14T22:26:10.584Z,97888.28
2023-05-14T22:28:42.946Z,97874.53
2023-05-14T22:31:12.129Z,97871.53
2023-05-14T22:33:41.400Z,97868.97
2023-05-14T22:36:11.909Z,97869.84
2023-05-14T22:38:41.843Z,97868.91
2023-05-14T22:41:10.453Z,97866.38
2023-05-14T22:43:38.974Z,97871.47
2023-05-14T22:46:07.498Z,97874.00
2023-05-14T22:48:35.963Z,97870.63
2023-05-14T22:51:04.437Z,97874.97
2023-05-14T22:53:34.380Z,97868.75
2023-05-14T22:56:02.953Z,97869.97
2023-05-14T22:58:32.514Z,97861.94
2023-05-14T23:01:01.117Z,97860.38
2023-05-14T23:03:29.833Z,97862.84
2023-05-14T23:05:58.916Z,97867.38
2023-05-14T23:08:27.388Z,97865.38
2023-05-14T23:10:57.253Z,97859.72
2023-05-14T23:13:26.180Z,97868.25
2023-05-14T23:15:54.653Z,97867.88
2023-05-14T23:18:25.002Z,97866.69
2023-05-14T23:20:54.367Z,97866.09
2023-05-14T23:23:23.459Z,97868.13
2023-05-14T23:25:52.944Z,97860.91
2023-05-14T23:28:23.602Z,97872.66
2023-05-14T23:30:53.050Z,97869.84
2023-05-14T23:33:21.609Z,97861.16
2023-05-14T23:35:51.850Z,97854.94
2023-05-14T23:38:21.101Z,97853.94
2023-05-14T23:40:49.589Z,97860.88
2023-05-14T23:43:18.073Z,97859.66
2023-05-14T23:45:48.543Z,97851.19
2023-05-14T23:48:17.668Z,97855.66
2023-05-14T23:50:46.069Z,97856.06
2023-05-14T23:53:14.480Z,97850.44
2023-05-14T23:55:43.476Z,97848.44
2023-05-14T23:58:11.908Z,97839.16
